sensor_id;sensor_type;location;lat;lon;timestamp;temperature;humidity
63537;DHT22;49686;51.880;5.632;2023-11-19T00:02:12;13.00;99.90
63537;DHT22;49686;51.880;5.632;2023-11-19T00:04:39;13.00;99.90
63537;DHT22;49686;51.880;5.632;2023-11-19T00:07:06;13.00;99.90
63537;DHT22;49686;51.880;5.632;2023-11-19T00:09:33;13.00;99.90
63537;DHT22;49686;51.880;5.632;2023-11-19T00:12:00;13.10;99.90
63537;DHT22;49686;51.880;5.632;2023-11-19T00:14:27;13.10;99.90
63537;DHT22;49686;51.880;5.632;2023-11-19T00:16:53;13.10;99.90
63537;DHT22;49686;51.880;5.632;2023-11-19T00:19:22;13.20;99.90
63537;DHT22;49686;51.880;5.632;2023-11-19T00:21:49;13.20;99.90
63537;DHT22;49686;51.880;5.632;2023-11-19T00:24:15;13.20;99.90
63537;DHT22;49686;51.880;5.632;2023-11-19T00:26:42;13.30;99.90
63537;DHT22;49686;51.880;5.632;2023-11-19T00:29:09;13.30;99.90
63537;DHT22;49686;51.880;5.632;2023-11-19T00:31:36;13.30;99.90
63537;DHT22;49686;51.880;5.632;2023-11-19T00:34:03;13.20;99.90
63537;DHT22;49686;51.880;5.632;2023-11-19T00:36:31;13.20;99.90
63537;DHT22;49686;51.880;5.632;2023-11-19T00:38:58;13.30;99.90
63537;DHT22;49686;51.880;5.632;2023-11-19T00:41:25;13.30;99.90
63537;DHT22;49686;51.880;5.632;2023-11-19T00:43:52;13.30;99.90
63537;DHT22;49686;51.880;5.632;2023-11-19T00:46:19;13.30;99.90
63537;DHT22;49686;51.880;5.632;2023-11-19T00:48:48;13.30;99.90
63537;DHT22;49686;51.880;5.632;2023-11-19T00:51:15;13.30;99.90
63537;DHT22;49686;51.880;5.632;2023-11-19T00:53:43;13.40;99.90
63537;DHT22;49686;51.880;5.632;2023-11-19T00:56:11;13.40;99.90
63537;DHT22;49686;51.880;5.632;2023-11-19T00:58:37;13.40;99.90
63537;DHT22;49686;51.880;5.632;2023-11-19T01:01:05;13.40;99.90
63537;DHT22;49686;51.880;5.632;2023-11-19T01:03:32;13.40;99.90
63537;DHT22;49686;51.880;5.632;2023-11-19T01:05:59;13.40;99.90
63537;DHT22;49686;51.880;5.632;2023-11-19T01:08:26;13.40;99.90
63537;DHT22;49686;51.880;5.632;2023-11-19T01:10:54;13.40;99.90
63537;DHT22;49686;51.880;5.632;2023-11-19T01:13:21;13.40;99.90
63537;DHT22;49686;51.880;5.632;2023-11-19T01:15:47;13.40;99.90
63537;DHT22;49686;51.880;5.632;2023-11-19T01:18:14;13.30;99.90
63537;DHT22;49686;51.880;5.632;2023-11-19T01:20:42;13.30;99.90
63537;DHT22;49686;51.880;5.632;2023-11-19T01:23:08;13.40;99.90
63537;DHT22;49686;51.880;5.632;2023-11-19T01:25:35;13.30;99.90
63537;DHT22;49686;51.880;5.632;2023-11-19T01:28:04;13.30;99.90
63537;DHT22;49686;51.880;5.632;2023-11-19T01:30:31;13.30;99.90
63537;DHT22;49686;51.880;5.632;2023-11-19T01:32:57;13.30;99.90
63537;DHT22;49686;51.880;5.632;2023-11-19T01:35:24;13.30;99.90
63537;DHT22;49686;51.880;5.632;2023-11-19T01:37:53;13.30;99.90
63537;DHT22;49686;51.880;5.632;2023-11-19T01:40:21;13.30;99.90
63537;DHT22;49686;51.880;5.632;2023-11-19T01:42:48;13.30;99.90
63537;DHT22;49686;51.880;5.632;2023-11-19T01:45:22;13.30;99.90
63537;DHT22;49686;51.880;5.632;2023-11-19T01:47:53;13.30;99.90
63537;DHT22;49686;51.880;5.632;2023-11-19T01:50:20;13.30;99.90
63537;DHT22;49686;51.880;5.632;2023-11-19T01:52:48;13.30;99.90
63537;DHT22;49686;51.880;5.632;2023-11-19T01:55:15;13.30;99.90
63537;DHT22;49686;51.880;5.632;2023-11-19T01:57:42;13.30;99.90
63537;DHT22;49686;51.880;5.632;2023-11-19T02:00:09;13.30;99.90
63537;DHT22;49686;51.880;5.632;2023-11-19T02:02:38;13.30;99.90
63537;DHT22;49686;51.880;5.632;2023-11-19T02:05:05;13.20;99.90
63537;DHT22;49686;51.880;5.632;2023-11-19T02:07:32;13.20;99.90
63537;DHT22;49686;51.880;5.632;2023-11-19T02:09:59;13.20;99.90
63537;DHT22;49686;51.880;5.632;2023-11-19T02:12:26;13.20;99.90
63537;DHT22;49686;51.880;5.632;2023-11-19T02:14:53;13.10;99.90
63537;DHT22;49686;51.880;5.632;2023-11-19T02:17:26;13.10;99.90
63537;DHT22;49686;51.880;5.632;2023-11-19T02:19:55;13.00;99.90
63537;DHT22;49686;51.880;5.632;2023-11-19T02:22:22;13.00;99.90
63537;DHT22;49686;51.880;5.632;2023-11-19T02:24:51;12.90;99.90
63537;DHT22;49686;51.880;5.632;2023-11-19T02:27:19;12.90;99.90
63537;DHT22;49686;51.880;5.632;2023-11-19T02:29:51;12.90;99.90
63537;DHT22;49686;51.880;5.632;2023-11-19T02:32:18;12.90;99.90
63537;DHT22;49686;51.880;5.632;2023-11-19T02:34:45;12.90;99.90
63537;DHT22;49686;51.880;5.632;2023-11-19T02:37:12;12.80;99.90
63537;DHT22;49686;51.880;5.632;2023-11-19T02:39:39;12.90;99.90
63537;DHT22;49686;51.880;5.632;2023-11-19T02:42:06;12.90;99.90
63537;DHT22;49686;51.880;5.632;2023-11-19T02:44:33;12.80;99.90
63537;DHT22;49686;51.880;5.632;2023-11-19T02:47:05;12.70;99.90
63537;DHT22;49686;51.880;5.632;2023-11-19T02:49:32;12.70;99.90
63537;DHT22;49686;51.880;5.632;2023-11-19T02:51:59;12.60;99.90
63537;DHT22;49686;51.880;5.632;2023-11-19T02:54:26;12.60;99.90
63537;DHT22;49686;51.880;5.632;2023-11-19T02:56:52;12.60;99.90
63537;DHT22;49686;51.880;5.632;2023-11-19T02:59:19;12.50;99.90
63537;DHT22;49686;51.880;5.632;2023-11-19T03:01:46;12.50;99.90
63537;DHT22;49686;51.880;5.632;2023-11-19T03:04:14;12.50;99.90
63537;DHT22;49686;51.880;5.632;2023-11-19T03:06:41;12.50;99.90
63537;DHT22;49686;51.880;5.632;2023-11-19T03:09:08;12.50;99.90
63537;DHT22;49686;51.880;5.632;2023-11-19T03:11:35;12.50;99.90
63537;DHT22;49686;51.880;5.632;2023-11-19T03:14:02;12.50;99.90
63537;DHT22;49686;51.880;5.632;2023-11-19T03:16:30;12.60;99.90
63537;DHT22;49686;51.880;5.632;2023-11-19T03:18:57;12.50;99.90
63537;DHT22;49686;51.880;5.632;2023-11-19T03:21:28;12.40;99.90
63537;DHT22;49686;51.880;5.632;2023-11-19T03:23:55;12.30;99.90
63537;DHT22;49686;51.880;5.632;2023-11-19T03:26:22;12.30;99.90
63537;DHT22;49686;51.880;5.632;2023-11-19T03:28:49;12.20;99.90
63537;DHT22;49686;51.880;5.632;2023-11-19T03:31:16;12.10;99.90
63537;DHT22;49686;51.880;5.632;2023-11-19T03:33:42;12.10;99.90
63537;DHT22;49686;51.880;5.632;2023-11-19T03:36:09;12.00;99.90
63537;DHT22;49686;51.880;5.632;2023-11-19T03:38:40;11.90;99.90
63537;DHT22;49686;51.880;5.632;2023-11-19T03:41:10;11.90;99.90
63537;DHT22;49686;51.880;5.632;2023-11-19T03:43:37;11.90;99.90
63537;DHT22;49686;51.880;5.632;2023-11-19T03:46:04;11.80;99.90
63537;DHT22;49686;51.880;5.632;2023-11-19T03:48:32;11.90;99.90
63537;DHT22;49686;51.880;5.632;2023-11-19T03:50:59;11.80;99.90
63537;DHT22;49686;51.880;5.632;2023-11-19T03:53:26;11.80;99.90
63537;DHT22;49686;51.880;5.632;2023-11-19T03:55:54;11.80;99.90
63537;DHT22;49686;51.880;5.632;2023-11-19T03:58:20;11.70;99.90
63537;DHT22;49686;51.880;5.632;2023-11-19T04:00:48;11.70;99.90
63537;DHT22;49686;51.880;5.632;2023-11-19T04:03:15;11.60;99.90
63537;DHT22;49686;51.880;5.632;2023-11-19T04:05:42;11.60;99.90
63537;DHT22;49686;51.880;5.632;2023-11-19T04:08:09;11.60;99.90
63537;DHT22;49686;51.880;5.632;2023-11-19T04:10:35;11.60;99.90
63537;DHT22;49686;51.880;5.632;2023-11-19T04:13:04;11.60;99.90
63537;DHT22;49686;51.880;5.632;2023-11-19T04:15:30;11.60;99.90
63537;DHT22;49686;51.880;5.632;2023-11-19T04:17:57;11.60;99.90
63537;DHT22;49686;51.880;5.632;2023-11-19T04:20:24;11.60;99.90
63537;DHT22;49686;51.880;5.632;2023-11-19T04:22:51;11.60;99.90
63537;DHT22;49686;51.880;5.632;2023-11-19T04:25:17;11.50;99.90
63537;DHT22;49686;51.880;5.632;2023-11-19T04:27:44;11.50;99.90
63537;DHT22;49686;51.880;5.632;2023-11-19T04:30:13;11.50;99.90
63537;DHT22;49686;51.880;5.632;2023-11-19T04:32:40;11.50;99.90
63537;DHT22;49686;51.880;5.632;2023-11-19T04:35:08;11.50;99.90
63537;DHT22;49686;51.880;5.632;2023-11-19T04:37:34;11.40;99.90
63537;DHT22;49686;51.880;5.632;2023-11-19T04:40:02;11.40;99.90
63537;DHT22;49686;51.880;5.632;2023-11-19T04:42:29;11.40;99.90
63537;DHT22;49686;51.880;5.632;2023-11-19T04:44:55;11.30;99.90
63537;DHT22;49686;51.880;5.632;2023-11-19T04:47:24;11.30;99.90
63537;DHT22;49686;51.880;5.632;2023-11-19T04:49:52;11.40;99.90
63537;DHT22;49686;51.880;5.632;2023-11-19T04:52:19;11.30;99.90
63537;DHT22;49686;51.880;5.632;2023-11-19T04:54:45;11.30;99.90
63537;DHT22;49686;51.880;5.632;2023-11-19T04:57:12;11.30;99.90
63537;DHT22;49686;51.880;5.632;2023-11-19T04:59:40;11.30;99.90
63537;DHT22;49686;51.880;5.632;2023-11-19T05:02:06;11.30;99.90
63537;DHT22;49686;51.880;5.632;2023-11-19T05:04:36;11.30;99.90
63537;DHT22;49686;51.880;5.632;2023-11-19T05:07:03;11.30;99.90
63537;DHT22;49686;51.880;5.632;2023-11-19T05:09:31;11.30;99.90
63537;DHT22;49686;51.880;5.632;2023-11-19T05:11:57;11.30;99.90
63537;DHT22;49686;51.880;5.632;2023-11-19T05:14:24;11.30;99.90
63537;DHT22;49686;51.880;5.632;2023-11-19T05:16:51;11.30;99.90
63537;DHT22;49686;51.880;5.632;2023-11-19T05:19:18;11.30;99.90
63537;DHT22;49686;51.880;5.632;2023-11-19T05:21:46;11.40;99.90
63537;DHT22;49686;51.880;5.632;2023-11-19T05:24:14;11.40;99.90
63537;DHT22;49686;51.880;5.632;2023-11-19T05:26:41;11.40;99.90
63537;DHT22;49686;51.880;5.632;2023-11-19T05:29:08;11.40;99.90
63537;DHT22;49686;51.880;5.632;2023-11-19T05:31:35;11.30;99.90
63537;DHT22;49686;51.880;5.632;2023-11-19T05:34:03;11.30;99.90
63537;DHT22;49686;51.880;5.632;2023-11-19T05:36:31;11.20;99.90
63537;DHT22;49686;51.880;5.632;2023-11-19T05:39:00;11.20;99.90
63537;DHT22;49686;51.880;5.632;2023-11-19T05:41:27;11.20;99.90
63537;DHT22;49686;51.880;5.632;2023-11-19T05:43:54;11.20;99.90
63537;DHT22;49686;51.880;5.632;2023-11-19T05:46:21;11.30;99.90
63537;DHT22;49686;51.880;5.632;2023-11-19T05:48:51;11.20;99.90
63537;DHT22;49686;51.880;5.632;2023-11-19T05:51:18;11.10;99.90
63537;DHT22;49686;51.880;5.632;2023-11-19T05:53:45;11.10;99.90
63537;DHT22;49686;51.880;5.632;2023-11-19T05:56:13;11.20;99.90
63537;DHT22;49686;51.880;5.632;2023-11-19T05:58:41;11.30;99.90
63537;DHT22;49686;51.880;5.632;2023-11-19T06:01:08;11.30;99.90
63537;DHT22;49686;51.880;5.632;2023-11-19T06:03:35;11.20;99.90
63537;DHT22;49686;51.880;5.632;2023-11-19T06:06:03;11.20;99.90
63537;DHT22;49686;51.880;5.632;2023-11-19T06:08:29;11.10;99.90
63537;DHT22;49686;51.880;5.632;2023-11-19T06:10:56;11.10;99.90
63537;DHT22;49686;51.880;5.632;2023-11-19T06:13:24;11.10;99.90
63537;DHT22;49686;51.880;5.632;2023-11-19T06:15:51;11.10;99.90
63537;DHT22;49686;51.880;5.632;2023-11-19T06:18:18;11.10;99.90
63537;DHT22;49686;51.880;5.632;2023-11-19T06:20:45;11.10;99.90
63537;DHT22;49686;51.880;5.632;2023-11-19T06:23:12;11.10;99.90
63537;DHT22;49686;51.880;5.632;2023-11-19T06:25:39;11.10;99.90
63537;DHT22;49686;51.880;5.632;2023-11-19T06:28:06;11.10;99.90
63537;DHT22;49686;51.880;5.632;2023-11-19T06:30:34;11.10;99.90
63537;DHT22;49686;51.880;5.632;2023-11-19T06:33:01;11.10;99.90
63537;DHT22;49686;51.880;5.632;2023-11-19T06:35:27;11.10;99.90
63537;DHT22;49686;51.880;5.632;2023-11-19T06:37:54;11.10;99.90
63537;DHT22;49686;51.880;5.632;2023-11-19T06:40:21;11.10;99.90
63537;DHT22;49686;51.880;5.632;2023-11-19T06:42:48;11.10;99.90
63537;DHT22;49686;51.880;5.632;2023-11-19T06:45:15;11.10;99.90
63537;DHT22;49686;51.880;5.632;2023-11-19T06:47:43;11.10;99.90
63537;DHT22;49686;51.880;5.632;2023-11-19T06:50:10;11.00;99.90
63537;DHT22;49686;51.880;5.632;2023-11-19T06:52:37;11.00;99.90
63537;DHT22;49686;51.880;5.632;2023-11-19T06:55:05;11.00;99.90
63537;DHT22;49686;51.880;5.632;2023-11-19T06:57:34;11.00;99.90
63537;DHT22;49686;51.880;5.632;2023-11-19T07:00:01;11.00;99.90
63537;DHT22;49686;51.880;5.632;2023-11-19T07:02:28;11.00;99.90
63537;DHT22;49686;51.880;5.632;2023-11-19T07:04:57;11.00;99.90
63537;DHT22;49686;51.880;5.632;2023-11-19T07:07:23;10.90;99.90
63537;DHT22;49686;51.880;5.632;2023-11-19T07:09:50;10.90;99.90
63537;DHT22;49686;51.880;5.632;2023-11-19T07:12:17;11.00;99.90
63537;DHT22;49686;51.880;5.632;2023-11-19T07:14:44;11.00;99.90
63537;DHT22;49686;51.880;5.632;2023-11-19T07:17:11;11.00;99.90
63537;DHT22;49686;51.880;5.632;2023-11-19T07:19:38;11.10;99.90
63537;DHT22;49686;51.880;5.632;2023-11-19T07:22:06;11.00;99.90
63537;DHT22;49686;51.880;5.632;2023-11-19T07:24:33;11.00;99.90
63537;DHT22;49686;51.880;5.632;2023-11-19T07:27:00;10.90;99.90
63537;DHT22;49686;51.880;5.632;2023-11-19T07:29:27;11.00;99.90
63537;DHT22;49686;51.880;5.632;2023-11-19T07:31:55;11.00;99.90
63537;DHT22;49686;51.880;5.632;2023-11-19T07:34:24;11.10;99.90
63537;DHT22;49686;51.880;5.632;2023-11-19T07:36:51;11.20;99.90
63537;DHT22;49686;51.880;5.632;2023-11-19T07:39:19;11.20;99.90
63537;DHT22;49686;51.880;5.632;2023-11-19T07:41:47;11.20;99.90
63537;DHT22;49686;51.880;5.632;2023-11-19T07:44:13;11.30;99.90
63537;DHT22;49686;51.880;5.632;2023-11-19T07:46:40;11.40;99.90
63537;DHT22;49686;51.880;5.632;2023-11-19T07:49:07;11.40;99.90
63537;DHT22;49686;51.880;5.632;2023-11-19T07:51:34;11.40;99.90
63537;DHT22;49686;51.880;5.632;2023-11-19T07:54:01;11.40;99.90
63537;DHT22;49686;51.880;5.632;2023-11-19T07:56:30;11.40;99.90
63537;DHT22;49686;51.880;5.632;2023-11-19T07:58:57;11.40;99.90
63537;DHT22;49686;51.880;5.632;2023-11-19T08:01:23;11.30;99.90
63537;DHT22;49686;51.880;5.632;2023-11-19T08:03:50;11.30;99.90
63537;DHT22;49686;51.880;5.632;2023-11-19T08:06:20;11.40;99.90
63537;DHT22;49686;51.880;5.632;2023-11-19T08:08:47;11.40;99.90
63537;DHT22;49686;51.880;5.632;2023-11-19T08:11:14;11.40;99.90
63537;DHT22;49686;51.880;5.632;2023-11-19T08:13:42;11.40;99.90
63537;DHT22;49686;51.880;5.632;2023-11-19T08:16:09;11.40;99.90
63537;DHT22;49686;51.880;5.632;2023-11-19T08:18:36;11.40;99.90
63537;DHT22;49686;51.880;5.632;2023-11-19T08:21:03;11.50;99.90
63537;DHT22;49686;51.880;5.632;2023-11-19T08:23:30;11.40;99.90
63537;DHT22;49686;51.880;5.632;2023-11-19T08:25:57;11.40;99.90
63537;DHT22;49686;51.880;5.632;2023-11-19T08:28:24;11.50;99.90
63537;DHT22;49686;51.880;5.632;2023-11-19T08:30:52;11.50;99.90
63537;DHT22;49686;51.880;5.632;2023-11-19T08:33:19;11.60;99.90
63537;DHT22;49686;51.880;5.632;2023-11-19T08:35:45;11.60;99.90
63537;DHT22;49686;51.880;5.632;2023-11-19T08:38:12;11.60;99.90
63537;DHT22;49686;51.880;5.632;2023-11-19T08:40:39;11.60;99.90
63537;DHT22;49686;51.880;5.632;2023-11-19T08:43:06;11.60;99.90
63537;DHT22;49686;51.880;5.632;2023-11-19T08:45:33;11.70;99.90
63537;DHT22;49686;51.880;5.632;2023-11-19T08:48:01;11.70;99.90
63537;DHT22;49686;51.880;5.632;2023-11-19T08:50:28;11.70;99.90
63537;DHT22;49686;51.880;5.632;2023-11-19T08:52:55;11.80;99.90
63537;DHT22;49686;51.880;5.632;2023-11-19T08:55:22;11.90;99.90
63537;DHT22;49686;51.880;5.632;2023-11-19T08:57:48;12.00;99.90
63537;DHT22;49686;51.880;5.632;2023-11-19T09:00:16;12.10;99.90
63537;DHT22;49686;51.880;5.632;2023-11-19T09:02:42;12.10;99.90
63537;DHT22;49686;51.880;5.632;2023-11-19T09:05:11;12.00;99.90
63537;DHT22;49686;51.880;5.632;2023-11-19T09:07:38;12.00;99.90
63537;DHT22;49686;51.880;5.632;2023-11-19T09:10:06;12.00;99.90
63537;DHT22;49686;51.880;5.632;2023-11-19T09:12:33;12.10;99.90
63537;DHT22;49686;51.880;5.632;2023-11-19T09:15:00;12.10;99.90
63537;DHT22;49686;51.880;5.632;2023-11-19T09:17:26;12.10;99.90
63537;DHT22;49686;51.880;5.632;2023-11-19T09:19:53;12.10;99.90
63537;DHT22;49686;51.880;5.632;2023-11-19T09:22:23;12.20;99.90
63537;DHT22;49686;51.880;5.632;2023-11-19T09:24:50;12.20;99.90
63537;DHT22;49686;51.880;5.632;2023-11-19T09:27:17;12.30;99.90
63537;DHT22;49686;51.880;5.632;2023-11-19T09:29:43;12.20;99.90
63537;DHT22;49686;51.880;5.632;2023-11-19T09:32:10;12.30;99.90
63537;DHT22;49686;51.880;5.632;2023-11-19T09:34:37;12.30;99.90
63537;DHT22;49686;51.880;5.632;2023-11-19T09:37:04;12.40;99.90
63537;DHT22;49686;51.880;5.632;2023-11-19T09:39:49;12.60;99.90
63537;DHT22;49686;51.880;5.632;2023-11-19T09:42:15;12.80;99.90
63537;DHT22;49686;51.880;5.632;2023-11-19T09:44:43;12.80;99.90
63537;DHT22;49686;51.880;5.632;2023-11-19T09:47:11;12.80;99.90
63537;DHT22;49686;51.880;5.632;2023-11-19T09:49:38;12.70;99.90
63537;DHT22;49686;51.880;5.632;2023-11-19T09:52:05;12.60;99.90
63537;DHT22;49686;51.880;5.632;2023-11-19T09:54:32;12.40;99.90
63537;DHT22;49686;51.880;5.632;2023-11-19T09:57:01;12.40;99.90
63537;DHT22;49686;51.880;5.632;2023-11-19T09:59:29;12.50;99.90
63537;DHT22;49686;51.880;5.632;2023-11-19T10:01:56;12.60;99.90
63537;DHT22;49686;51.880;5.632;2023-11-19T10:04:24;12.70;99.90
63537;DHT22;49686;51.880;5.632;2023-11-19T10:06:52;12.80;99.90
63537;DHT22;49686;51.880;5.632;2023-11-19T10:09:19;12.90;99.90
63537;DHT22;49686;51.880;5.632;2023-11-19T10:11:46;13.00;99.90
63537;DHT22;49686;51.880;5.632;2023-11-19T10:14:14;13.10;99.90
63537;DHT22;49686;51.880;5.632;2023-11-19T10:16:41;12.90;99.90
63537;DHT22;49686;51.880;5.632;2023-11-19T10:19:12;12.90;99.90
63537;DHT22;49686;51.880;5.632;2023-11-19T10:21:46;13.00;99.90
63537;DHT22;49686;51.880;5.632;2023-11-19T10:24:13;13.00;99.90
63537;DHT22;49686;51.880;5.632;2023-11-19T10:26:56;13.00;99.90
63537;DHT22;49686;51.880;5.632;2023-11-19T10:29:25;12.90;99.90
63537;DHT22;49686;51.880;5.632;2023-11-19T10:31:56;12.90;99.90
63537;DHT22;49686;51.880;5.632;2023-11-19T10:34:25;12.80;99.90
63537;DHT22;49686;51.880;5.632;2023-11-19T10:36:52;12.80;99.90
63537;DHT22;49686;51.880;5.632;2023-11-19T10:39:19;12.90;99.90
63537;DHT22;49686;51.880;5.632;2023-11-19T10:41:46;13.00;99.90
63537;DHT22;49686;51.880;5.632;2023-11-19T10:44:32;13.10;99.90
63537;DHT22;49686;51.880;5.632;2023-11-19T10:46:59;13.30;99.90
63537;DHT22;49686;51.880;5.632;2023-11-19T10:49:26;13.40;99.90
63537;DHT22;49686;51.880;5.632;2023-11-19T10:51:55;13.50;99.90
63537;DHT22;49686;51.880;5.632;2023-11-19T10:54:22;13.60;99.90
63537;DHT22;49686;51.880;5.632;2023-11-19T10:56:55;13.60;99.90
63537;DHT22;49686;51.880;5.632;2023-11-19T10:59:24;13.70;99.90
63537;DHT22;49686;51.880;5.632;2023-11-19T11:02:03;13.80;99.90
63537;DHT22;49686;51.880;5.632;2023-11-19T11:04:35;13.80;99.90
63537;DHT22;49686;51.880;5.632;2023-11-19T11:07:03;13.70;99.90
63537;DHT22;49686;51.880;5.632;2023-11-19T11:09:30;13.60;99.90
63537;DHT22;49686;51.880;5.632;2023-11-19T11:11:59;13.60;99.90
63537;DHT22;49686;51.880;5.632;2023-11-19T11:14:27;13.60;99.90
63537;DHT22;49686;51.880;5.632;2023-11-19T11:16:59;13.60;99.90
63537;DHT22;49686;51.880;5.632;2023-11-19T11:19:27;13.60;99.90
63537;DHT22;49686;51.880;5.632;2023-11-19T11:21:54;13.70;99.90
63537;DHT22;49686;51.880;5.632;2023-11-19T11:24:48;13.70;99.90
63537;DHT22;49686;51.880;5.632;2023-11-19T11:27:48;13.70;99.90
63537;DHT22;49686;51.880;5.632;2023-11-19T11:30:28;13.60;99.90
63537;DHT22;49686;51.880;5.632;2023-11-19T11:33:06;13.60;99.90
63537;DHT22;49686;51.880;5.632;2023-11-19T11:35:44;13.50;99.90
63537;DHT22;49686;51.880;5.632;2023-11-19T11:38:21;13.50;99.90
63537;DHT22;49686;51.880;5.632;2023-11-19T11:41:15;13.50;99.90
63537;DHT22;49686;51.880;5.632;2023-11-19T11:43:46;13.50;99.90
63537;DHT22;49686;51.880;5.632;2023-11-19T11:49:25;13.50;99.90
63537;DHT22;49686;51.880;5.632;2023-11-19T11:52:02;13.50;99.90
63537;DHT22;49686;51.880;5.632;2023-11-19T11:54:29;13.50;99.90
63537;DHT22;49686;51.880;5.632;2023-11-19T11:57:04;13.40;99.90
63537;DHT22;49686;51.880;5.632;2023-11-19T11:59:48;13.50;99.90
63537;DHT22;49686;51.880;5.632;2023-11-19T12:02:17;13.40;99.90
63537;DHT22;49686;51.880;5.632;2023-11-19T12:04:50;13.40;99.90
63537;DHT22;49686;51.880;5.632;2023-11-19T12:07:20;13.40;99.90
63537;DHT22;49686;51.880;5.632;2023-11-19T12:09:52;13.50;99.90
63537;DHT22;49686;51.880;5.632;2023-11-19T12:12:23;13.50;99.90
63537;DHT22;49686;51.880;5.632;2023-11-19T12:15:03;13.50;99.90
63537;DHT22;49686;51.880;5.632;2023-11-19T12:17:53;13.70;99.90
63537;DHT22;49686;51.880;5.632;2023-11-19T12:20:22;13.70;99.90
63537;DHT22;49686;51.880;5.632;2023-11-19T12:22:53;13.60;99.90
63537;DHT22;49686;51.880;5.632;2023-11-19T12:25:20;13.60;99.90
63537;DHT22;49686;51.880;5.632;2023-11-19T12:27:49;13.60;99.90
63537;DHT22;49686;51.880;5.632;2023-11-19T12:30:21;13.60;99.90
63537;DHT22;49686;51.880;5.632;2023-11-19T12:32:49;13.60;99.90
63537;DHT22;49686;51.880;5.632;2023-11-19T12:35:16;13.60;99.90
63537;DHT22;49686;51.880;5.632;2023-11-19T12:37:45;13.60;99.90
63537;DHT22;49686;51.880;5.632;2023-11-19T12:40:14;13.60;99.90
63537;DHT22;49686;51.880;5.632;2023-11-19T12:42:41;13.50;99.90
63537;DHT22;49686;51.880;5.632;2023-11-19T12:45:08;13.50;99.90
63537;DHT22;49686;51.880;5.632;2023-11-19T12:47:35;13.60;99.90
63537;DHT22;49686;51.880;5.632;2023-11-19T12:50:02;13.70;99.90
63537;DHT22;49686;51.880;5.632;2023-11-19T12:52:29;13.60;99.90
63537;DHT22;49686;51.880;5.632;2023-11-19T12:54:57;13.50;99.90
63537;DHT22;49686;51.880;5.632;2023-11-19T12:57:39;13.50;99.90
63537;DHT22;49686;51.880;5.632;2023-11-19T13:00:07;13.50;99.90
63537;DHT22;49686;51.880;5.632;2023-11-19T13:02:47;13.40;99.90
63537;DHT22;49686;51.880;5.632;2023-11-19T13:05:35;13.40;99.90
63537;DHT22;49686;51.880;5.632;2023-11-19T13:08:03;13.30;99.90
63537;DHT22;49686;51.880;5.632;2023-11-19T13:10:32;13.40;99.90
63537;DHT22;49686;51.880;5.632;2023-11-19T13:13:04;13.40;99.90
63537;DHT22;49686;51.880;5.632;2023-11-19T13:15:31;13.40;99.90
63537;DHT22;49686;51.880;5.632;2023-11-19T13:17:58;13.40;99.90
63537;DHT22;49686;51.880;5.632;2023-11-19T13:20:25;13.50;99.90
63537;DHT22;49686;51.880;5.632;2023-11-19T13:22:59;13.50;99.90
63537;DHT22;49686;51.880;5.632;2023-11-19T13:25:26;13.60;99.90
63537;DHT22;49686;51.880;5.632;2023-11-19T13:27:54;13.50;99.90
63537;DHT22;49686;51.880;5.632;2023-11-19T13:30:22;13.40;99.90
63537;DHT22;49686;51.880;5.632;2023-11-19T13:32:52;13.40;99.90
63537;DHT22;49686;51.880;5.632;2023-11-19T13:35:19;13.40;99.90
63537;DHT22;49686;51.880;5.632;2023-11-19T13:37:46;12.90;99.90
63537;DHT22;49686;51.880;5.632;2023-11-19T13:40:13;12.40;99.90
63537;DHT22;49686;51.880;5.632;2023-11-19T13:42:40;12.00;99.90
63537;DHT22;49686;51.880;5.632;2023-11-19T13:45:12;11.90;99.90
63537;DHT22;49686;51.880;5.632;2023-11-19T13:47:41;11.80;99.90
63537;DHT22;49686;51.880;5.632;2023-11-19T13:50:09;11.90;99.90
63537;DHT22;49686;51.880;5.632;2023-11-19T13:52:39;12.00;99.90
63537;DHT22;49686;51.880;5.632;2023-11-19T13:55:08;12.10;99.90
63537;DHT22;49686;51.880;5.632;2023-11-19T13:57:35;12.10;99.90
63537;DHT22;49686;51.880;5.632;2023-11-19T14:00:03;12.20;99.90
63537;DHT22;49686;51.880;5.632;2023-11-19T14:02:31;12.30;99.90
63537;DHT22;49686;51.880;5.632;2023-11-19T14:04:58;12.30;99.90
63537;DHT22;49686;51.880;5.632;2023-11-19T14:07:25;12.40;99.90
63537;DHT22;49686;51.880;5.632;2023-11-19T14:09:51;12.40;99.90
63537;DHT22;49686;51.880;5.632;2023-11-19T14:12:18;12.40;99.90
63537;DHT22;49686;51.880;5.632;2023-11-19T14:14:45;12.50;99.90
63537;DHT22;49686;51.880;5.632;2023-11-19T14:17:12;12.50;99.90
63537;DHT22;49686;51.880;5.632;2023-11-19T14:19:42;12.40;99.90
63537;DHT22;49686;51.880;5.632;2023-11-19T14:22:08;12.40;99.90
63537;DHT22;49686;51.880;5.632;2023-11-19T14:24:35;12.30;99.90
63537;DHT22;49686;51.880;5.632;2023-11-19T14:27:03;12.30;99.90
63537;DHT22;49686;51.880;5.632;2023-11-19T14:29:29;12.20;99.90
63537;DHT22;49686;51.880;5.632;2023-11-19T14:31:56;12.10;99.90
63537;DHT22;49686;51.880;5.632;2023-11-19T14:34:23;12.10;99.90
63537;DHT22;49686;51.880;5.632;2023-11-19T14:36:51;12.10;99.90
63537;DHT22;49686;51.880;5.632;2023-11-19T14:39:18;12.10;99.90
63537;DHT22;49686;51.880;5.632;2023-11-19T14:41:45;12.00;99.90
63537;DHT22;49686;51.880;5.632;2023-11-19T14:44:12;12.00;99.90
63537;DHT22;49686;51.880;5.632;2023-11-19T14:46:39;12.00;99.90
63537;DHT22;49686;51.880;5.632;2023-11-19T14:49:06;11.90;99.90
63537;DHT22;49686;51.880;5.632;2023-11-19T14:51:35;11.90;99.90
63537;DHT22;49686;51.880;5.632;2023-11-19T14:54:04;11.90;99.90
63537;DHT22;49686;51.880;5.632;2023-11-19T14:56:31;11.80;99.90
63537;DHT22;49686;51.880;5.632;2023-11-19T14:58:58;11.80;99.90
63537;DHT22;49686;51.880;5.632;2023-11-19T15:01:25;11.80;99.90
63537;DHT22;49686;51.880;5.632;2023-11-19T15:03:52;11.80;99.90
63537;DHT22;49686;51.880;5.632;2023-11-19T15:06:23;11.80;99.90
63537;DHT22;49686;51.880;5.632;2023-11-19T15:08:50;11.80;99.90
63537;DHT22;49686;51.880;5.632;2023-11-19T15:11:18;11.70;99.90
63537;DHT22;49686;51.880;5.632;2023-11-19T15:13:45;11.70;99.90
63537;DHT22;49686;51.880;5.632;2023-11-19T15:16:12;11.70;99.90
63537;DHT22;49686;51.880;5.632;2023-11-19T15:18:41;11.80;99.90
63537;DHT22;49686;51.880;5.632;2023-11-19T15:21:08;11.80;99.90
63537;DHT22;49686;51.880;5.632;2023-11-19T15:23:35;11.80;99.90
63537;DHT22;49686;51.880;5.632;2023-11-19T15:26:01;11.80;99.90
63537;DHT22;49686;51.880;5.632;2023-11-19T15:28:30;11.90;99.90
63537;DHT22;49686;51.880;5.632;2023-11-19T15:30:56;11.90;99.90
63537;DHT22;49686;51.880;5.632;2023-11-19T15:33:23;11.90;99.90
63537;DHT22;49686;51.880;5.632;2023-11-19T15:35:50;11.90;99.90
63537;DHT22;49686;51.880;5.632;2023-11-19T15:38:17;11.90;99.90
63537;DHT22;49686;51.880;5.632;2023-11-19T15:40:44;11.80;99.90